Nearby METAR Reports

 

K1A5 - Macon/Franklin, North Carolina, USA
Distance from station: WSW 16mi, 25km
Updated: Fri, 03-Jul-2020 9:15pm EDT
Overcast
Overcast
 Wind from calm
Wind: Calm
Temperature: 72°F , 22°C
Dew Point: 70°F , 21°C
Humidity: 94%
Barometer: 30.06 inHg , 1017.9 hPa
Clouds: Overcast
Visibility: 10 miles , 16 km
Cloud details: Partly cloudy 3900 ft
Mostly cloudy 4600 ft
Overcast 5000 ft
2020/07/04 01:15 K1A5 040115Z AUTO 00000KT 10SM SCT039 BKN046 OVC050 22/21 A3006 RMK AO2 T02160205
KAVL - Asheville, North Carolina, USA
Distance from station: ENE 36mi, 59km
Updated: Fri, 03-Jul-2020 8:54pm EDT
Overcast
Overcast
 Wind from SW
Wind: SW 3 mph , 6 km/h
Temperature: 75°F , 24°C
Dew Point: 68°F , 20°C
Humidity: 78%
Barometer: 30.02 inHg , 1016.6 hPa
Clouds: Overcast
Visibility: 10 miles , 16 km
Cloud details: Overcast 10000 ft
2020/07/04 00:54 KAVL 040054Z AUTO 23003KT 10SM OVC100 24/20 A3002 RMK AO2 SLP139 T02390200
 
KRHP - Andrews, North Carolina, USA
Distance from station: WSW 40mi, 64km
Updated: Fri, 03-Jul-2020 9:35pm EDT
Mostly cloudy
Mostly cloudy
 Wind from calm
Wind: Calm
Temperature: 70°F , 21°C
Dew Point: 70°F , 21°C
Humidity: 100%
Barometer: 30.02 inHg , 1016.6 hPa
Clouds: Mostly cloudy
Visibility: 10 miles , 16 km
Cloud details: Mostly cloudy 5500 ft
Mostly cloudy 6500 ft
2020/07/04 01:35 KRHP 040135Z AUTO 00000KT 10SM BKN055 BKN065 21/21 A3002 RMK AO2 T02110211
KLQK - Pickens, South Carolina, USA
Distance from station: SE 42mi, 68km
Updated: Fri, 03-Jul-2020 9:35pm EDT
Partly cloudy
Partly cloudy
 Wind from calm
Wind: Calm
Temperature: 75°F , 24°C
Dew Point: 75°F , 24°C
Humidity: 100%
Barometer: 29.94 inHg , 1013.9 hPa
Clouds: Partly cloudy
Visibility: 10 miles , 16 km
Cloud details: Partly cloudy 11000 ft
2020/07/04 01:35 KLQK 040135Z AUTO 00000KT 10SM SCT110 24/24 A2994 RMK AO2 T02440243
 
KCEU - Clemson, South Carolina, USA
Distance from station: SSE 46mi, 75km
Updated: Fri, 03-Jul-2020 8:54pm EDT
Clear
Clear
 Wind from calm
Wind: Calm
Temperature: 82°F , 28°C
Heat Index: 86°F , 30°C
Dew Point: 70°F , 21°C
Humidity: 66%
Barometer: 29.95 inHg , 1014.2 hPa
Clouds: Clear
Visibility: 10 miles , 16 km
2020/07/04 00:54 KCEU 040054Z AUTO 00000KT 10SM CLR 28/21 A2995 RMK AO2 SLP130 T02780206
KTOC - Toccoa, Georgia, USA
Distance from station: S 49mi, 79km
Updated: Fri, 03-Jul-2020 9:35pm EDT
Clear
Clear
 Wind from calm
Wind: Calm
Temperature: 81°F , 27°C
Heat Index: 85°F , 29°C
Dew Point: 72°F , 22°C
Humidity: 74%
Barometer: 29.96 inHg , 1014.6 hPa
Clouds: Clear
Visibility: 10 miles , 16 km
2020/07/04 01:35 KTOC 040135Z AUTO 00000KT 10SM CLR 27/22 A2996 RMK AO2 T02660221